createdAt,value
2017-08-28T00:00:45.025Z,0.00
2017-08-28T00:01:44.726Z,0.00
2017-08-28T00:02:44.720Z,0.00
2017-08-28T00:03:44.707Z,0.00
2017-08-28T00:04:44.695Z,0.00
2017-08-28T00:05:44.692Z,0.00
2017-08-28T00:06:44.708Z,0.00
2017-08-28T00:07:44.675Z,0.00
2017-08-28T00:08:44.663Z,0.00
2017-08-28T00:09:44.689Z,0.00
2017-08-28T00:10:44.655Z,0.00
2017-08-28T00:11:44.644Z,0.00
2017-08-28T00:12:44.634Z,0.00
2017-08-28T00:13:44.625Z,0.00
2017-08-28T00:14:44.909Z,0.00
2017-08-28T00:15:44.605Z,0.00
2017-08-28T00:16:44.609Z,0.00
2017-08-28T00:17:44.598Z,0.00
2017-08-28T00:18:44.582Z,0.00
2017-08-28T00:19:44.586Z,0.00
2017-08-28T00:20:44.926Z,0.00
2017-08-28T00:21:44.556Z,0.00
2017-08-28T00:22:44.561Z,0.00
2017-08-28T00:23:44.539Z,0.00
2017-08-28T00:24:44.549Z,0.00
2017-08-28T00:25:44.522Z,0.00
2017-08-28T00:26:44.730Z,0.00
2017-08-28T00:27:44.506Z,0.00
2017-08-28T00:28:44.499Z,0.00
2017-08-28T00:29:44.492Z,0.00
2017-08-28T00:30:44.482Z,0.00
2017-08-28T00:31:44.481Z,0.00
2017-08-28T00:32:44.840Z,0.00
2017-08-28T00:33:44.454Z,0.00
2017-08-28T00:34:44.457Z,0.00
2017-08-28T00:35:44.440Z,0.00
2017-08-28T00:36:44.446Z,0.00
2017-08-28T00:37:44.425Z,0.00
2017-08-28T00:38:44.451Z,0.00
2017-08-28T00:39:44.406Z,0.00
2017-08-28T00:40:44.403Z,0.00
2017-08-28T00:41:44.809Z,0.00
2017-08-28T00:42:44.381Z,0.00
2017-08-28T00:43:44.377Z,0.00
2017-08-28T00:44:44.369Z,0.00
2017-08-28T00:45:44.362Z,0.00
2017-08-28T00:46:44.355Z,0.00
2017-08-28T00:47:44.731Z,0.00
2017-08-28T00:48:44.339Z,0.00
2017-08-28T00:49:44.332Z,0.00
2017-08-28T00:50:44.309Z,0.00
2017-08-28T00:51:44.315Z,0.00
2017-08-28T00:52:44.292Z,0.00
2017-08-28T00:53:44.326Z,0.00
2017-08-28T00:54:44.287Z,0.00
2017-08-28T00:55:44.285Z,0.00
2017-08-28T00:56:44.620Z,0.00
2017-08-28T00:57:44.261Z,0.00
2017-08-28T00:58:44.255Z,0.00
2017-08-28T00:59:44.258Z,0.00
2017-08-28T01:00:44.245Z,0.00
2017-08-28T01:01:44.220Z,0.00
2017-08-28T01:02:44.556Z,0.00
2017-08-28T01:03:44.210Z,0.00
2017-08-28T01:04:44.195Z,0.00
2017-08-28T01:05:44.203Z,0.00
2017-08-28T01:06:44.176Z,0.00
2017-08-28T01:07:44.187Z,0.00
2017-08-28T01:08:44.547Z,0.00
2017-08-28T01:09:44.168Z,0.00
2017-08-28T01:10:44.141Z,0.00
2017-08-28T01:11:44.149Z,0.00
2017-08-28T01:12:44.125Z,0.00
2017-08-28T01:13:44.129Z,0.00
2017-08-28T01:14:44.339Z,0.00
2017-08-28T01:15:44.110Z,0.00
2017-08-28T01:16:44.099Z,0.00
2017-08-28T01:17:44.103Z,0.00
2017-08-28T01:18:44.086Z,0.00
2017-08-28T01:19:44.070Z,0.00
2017-08-28T01:20:44.505Z,0.00
2017-08-28T01:21:44.061Z,0.00
2017-08-28T01:22:44.034Z,0.00
2017-08-28T01:23:44.036Z,0.00
2017-08-28T01:24:44.023Z,0.00
2017-08-28T01:25:44.047Z,0.00
2017-08-28T01:26:44.357Z,0.00
2017-08-28T01:27:43.997Z,0.00
2017-08-28T01:28:44.006Z,0.00
2017-08-28T01:29:43.987Z,0.00
2017-08-28T01:30:43.976Z,0.00
2017-08-28T01:31:43.983Z,0.00
2017-08-28T01:32:44.349Z,0.00
2017-08-28T01:33:43.953Z,0.00
2017-08-28T01:34:43.936Z,0.00
2017-08-28T01:35:43.927Z,0.00
2017-08-28T01:36:43.932Z,0.00
2017-08-28T01:37:43.927Z,0.00
2017-08-28T01:38:43.936Z,0.00
2017-08-28T01:39:43.908Z,0.00
2017-08-28T01:40:43.898Z,0.00
2017-08-28T01:41:43.895Z,0.00
2017-08-28T01:42:44.242Z,0.00
2017-08-28T01:43:43.863Z,0.00
2017-08-28T01:44:43.865Z,0.00
2017-08-28T01:45:43.855Z,0.00
2017-08-28T01:46:43.855Z,0.00
2017-08-28T01:47:43.833Z,0.00
2017-08-28T01:48:43.851Z,0.00
2017-08-28T01:49:43.817Z,0.00
2017-08-28T01:50:43.803Z,0.00
2017-08-28T01:51:43.802Z,0.00
2017-08-28T01:52:44.219Z,0.00
2017-08-28T01:53:43.774Z,0.00
2017-08-28T01:54:43.763Z,0.00
2017-08-28T01:55:43.773Z,0.00
2017-08-28T01:56:43.757Z,0.00
2017-08-28T01:57:43.744Z,0.00
2017-08-28T01:58:44.129Z,0.00
2017-08-28T01:59:43.728Z,0.00
2017-08-28T02:00:43.711Z,0.00
2017-08-28T02:01:43.707Z,0.00
2017-08-28T02:02:43.713Z,0.00
2017-08-28T02:03:43.704Z,0.00
2017-08-28T02:04:43.723Z,0.00
2017-08-28T02:05:43.684Z,0.00
2017-08-28T02:06:43.664Z,0.00
2017-08-28T02:07:43.654Z,0.00
2017-08-28T02:08:43.641Z,0.00
2017-08-28T02:09:43.677Z,0.00
2017-08-28T02:10:43.649Z,0.00
2017-08-28T02:11:43.626Z,0.00
2017-08-28T02:12:43.612Z,0.00
2017-08-28T02:13:43.601Z,0.00
2017-08-28T02:14:43.956Z,0.00
2017-08-28T02:15:43.613Z,0.00
2017-08-28T02:16:43.575Z,0.00
2017-08-28T02:17:43.583Z,0.00
2017-08-28T02:18:43.575Z,0.00
2017-08-28T02:19:43.553Z,0.00
2017-08-28T02:20:43.978Z,0.00
2017-08-28T02:21:43.541Z,0.00
2017-08-28T02:22:43.541Z,0.00
2017-08-28T02:23:43.514Z,0.00
2017-08-28T02:24:43.513Z,0.00
2017-08-28T02:25:43.494Z,0.00
2017-08-28T02:26:43.941Z,0.00
2017-08-28T02:27:43.499Z,0.00
2017-08-28T02:28:43.487Z,0.00
2017-08-28T02:29:43.478Z,0.00
2017-08-28T02:30:43.458Z,0.00
2017-08-28T02:31:43.450Z,0.00
2017-08-28T02:32:43.476Z,0.00
2017-08-28T02:33:43.436Z,0.00
2017-08-28T02:34:43.865Z,0.00
2017-08-28T02:35:43.427Z,0.00
2017-08-28T02:36:43.407Z,0.00
2017-08-28T02:37:43.392Z,0.00
2017-08-28T02:38:43.387Z,0.00
2017-08-28T02:39:43.376Z,0.00
2017-08-28T02:40:43.736Z,0.00
2017-08-28T02:41:43.371Z,0.00
2017-08-28T02:42:43.361Z,0.00
2017-08-28T02:43:43.338Z,0.00
2017-08-28T02:44:43.336Z,0.00
2017-08-28T02:45:43.327Z,0.00
2017-08-28T02:46:43.622Z,0.00
2017-08-28T02:47:43.323Z,0.00
2017-08-28T02:48:43.321Z,0.00
2017-08-28T02:49:43.289Z,0.00
2017-08-28T02:50:43.290Z,0.00
2017-08-28T02:51:43.286Z,0.00
2017-08-28T02:52:43.703Z,0.00
2017-08-28T02:53:43.254Z,0.00
2017-08-28T02:54:43.264Z,0.00
2017-08-28T02:55:43.248Z,0.00
2017-08-28T02:56:43.241Z,0.00
2017-08-28T02:57:43.218Z,0.00
2017-08-28T02:58:43.522Z,0.00
2017-08-28T02:59:43.205Z,0.00
2017-08-28T03:00:43.195Z,0.00
2017-08-28T03:01:43.207Z,0.00
2017-08-28T03:02:43.173Z,0.00
2017-08-28T03:03:43.176Z,0.00
2017-08-28T03:04:43.481Z,0.00
2017-08-28T03:05:43.149Z,0.00
2017-08-28T03:06:43.149Z,0.00
2017-08-28T03:07:43.132Z,0.00
2017-08-28T03:08:43.123Z,0.00
2017-08-28T03:09:43.121Z,0.00
2017-08-28T03:10:43.518Z,0.00
2017-08-28T03:11:43.106Z,0.00
2017-08-28T03:12:43.093Z,0.00
2017-08-28T03:13:43.086Z,0.00
2017-08-28T03:14:43.084Z,0.00
2017-08-28T03:15:43.064Z,0.00
2017-08-28T03:16:43.496Z,0.00
2017-08-28T03:17:43.048Z,0.00
2017-08-28T03:18:43.036Z,0.00
2017-08-28T03:19:43.044Z,0.00
2017-08-28T03:20:43.018Z,0.00
2017-08-28T03:21:43.021Z,0.00
2017-08-28T03:22:43.362Z,0.00
2017-08-28T03:23:42.996Z,0.00
2017-08-28T03:24:42.996Z,0.00
2017-08-28T03:25:42.970Z,0.00
2017-08-28T03:26:42.982Z,0.00
2017-08-28T03:27:42.959Z,0.00
2017-08-28T03:28:43.299Z,0.00
2017-08-28T03:29:42.940Z,0.00
2017-08-28T03:30:42.926Z,0.00
2017-08-28T03:31:42.926Z,0.00
2017-08-28T03:32:42.924Z,0.00
2017-08-28T03:33:42.920Z,0.00
2017-08-28T03:34:43.111Z,0.00
2017-08-28T03:35:42.883Z,0.00
2017-08-28T03:36:42.889Z,0.00
2017-08-28T03:37:42.889Z,0.00
2017-08-28T03:38:42.876Z,0.00
2017-08-28T03:39:42.867Z,0.00
2017-08-28T03:40:43.055Z,0.00
2017-08-28T03:41:42.835Z,0.00
2017-08-28T03:42:42.829Z,0.00
2017-08-28T03:43:42.833Z,0.00
2017-08-28T03:44:42.823Z,0.00
2017-08-28T03:45:42.802Z,0.00
2017-08-28T03:46:43.085Z,0.00
2017-08-28T03:47:42.780Z,0.00
2017-08-28T03:48:42.768Z,0.00
2017-08-28T03:49:42.761Z,0.00
2017-08-28T03:50:42.760Z,0.00
2017-08-28T03:51:42.757Z,0.00
2017-08-28T03:52:43.044Z,0.00
2017-08-28T03:53:42.725Z,0.00
2017-08-28T03:54:42.724Z,0.00
2017-08-28T03:55:42.716Z,0.00
2017-08-28T03:56:42.699Z,0.00
2017-08-28T03:57:42.692Z,0.00
2017-08-28T03:58:42.901Z,0.00
2017-08-28T03:59:42.670Z,0.00
2017-08-28T04:00:42.675Z,0.00
2017-08-28T04:01:42.656Z,0.00
2017-08-28T04:02:42.650Z,0.00
2017-08-28T04:03:42.653Z,0.00
2017-08-28T04:04:42.869Z,0.00
2017-08-28T04:05:42.619Z,0.00
2017-08-28T04:06:42.612Z,0.00
2017-08-28T04:07:42.598Z,0.00
2017-08-28T04:08:42.588Z,0.00
2017-08-28T04:09:42.575Z,4.00
2017-08-28T04:10:42.890Z,0.00
2017-08-28T04:11:42.560Z,0.00
2017-08-28T04:12:42.560Z,4.00
2017-08-28T04:13:42.540Z,0.00
2017-08-28T04:14:42.550Z,4.00
2017-08-28T04:15:42.532Z,4.00
2017-08-28T04:16:42.848Z,4.00
2017-08-28T04:17:42.513Z,4.00
2017-08-28T04:18:42.504Z,8.00
2017-08-28T04:19:42.486Z,8.00
2017-08-28T04:20:42.489Z,8.00
2017-08-28T04:21:42.473Z,12.00
2017-08-28T04:22:42.775Z,12.00
2017-08-28T04:23:42.458Z,12.00
2017-08-28T04:24:42.459Z,16.00
2017-08-28T04:25:42.448Z,16.00
2017-08-28T04:26:42.431Z,16.00
2017-08-28T04:27:42.424Z,16.00
2017-08-28T04:28:42.776Z,20.00
2017-08-28T04:29:42.411Z,20.00
2017-08-28T04:30:42.418Z,24.00
2017-08-28T04:31:42.390Z,24.00
2017-08-28T04:32:42.381Z,32.00
2017-08-28T04:33:42.370Z,32.00
2017-08-28T04:34:42.739Z,36.00
2017-08-28T04:35:42.360Z,40.00
2017-08-28T04:36:42.331Z,44.00
2017-08-28T04:37:42.396Z,48.00
2017-08-28T04:38:42.325Z,48.00
2017-08-28T04:39:42.306Z,56.00
2017-08-28T04:40:42.611Z,60.00
2017-08-28T04:41:42.291Z,60.00
2017-08-28T04:42:42.289Z,68.00
2017-08-28T04:43:42.291Z,72.00
2017-08-28T04:44:42.254Z,76.00
2017-08-28T04:45:42.253Z,80.00
2017-08-28T04:46:42.545Z,88.00
2017-08-28T04:47:42.235Z,92.00
2017-08-28T04:48:42.226Z,96.00
2017-08-28T04:49:42.217Z,104.00
2017-08-28T04:50:42.213Z,108.00
2017-08-28T04:51:42.204Z,116.00
2017-08-28T04:52:42.517Z,124.00
2017-08-28T04:53:42.185Z,128.00
2017-08-28T04:54:42.161Z,132.00
2017-08-28T04:55:42.157Z,140.00
2017-08-28T04:56:42.157Z,148.00
2017-08-28T04:57:42.146Z,156.00
2017-08-28T04:58:42.579Z,160.00
2017-08-28T04:59:42.118Z,164.00
2017-08-28T05:00:42.121Z,172.00
2017-08-28T05:01:42.099Z,180.00
2017-08-28T05:02:42.092Z,184.00
2017-08-28T05:03:42.092Z,188.00
2017-08-28T05:04:42.415Z,192.00
2017-08-28T05:05:42.069Z,200.00
2017-08-28T05:06:42.071Z,204.00
2017-08-28T05:07:42.041Z,212.00
2017-08-28T05:08:42.056Z,216.00
2017-08-28T05:09:42.034Z,220.00
2017-08-28T05:10:42.358Z,232.00
2017-08-28T05:11:42.022Z,236.00
2017-08-28T05:12:42.014Z,240.00
2017-08-28T05:13:41.998Z,244.00
2017-08-28T05:14:41.996Z,248.00
2017-08-28T05:15:41.982Z,252.00
2017-08-28T05:16:42.254Z,260.00
2017-08-28T05:17:41.956Z,264.00
2017-08-28T05:18:41.958Z,272.00
2017-08-28T05:19:41.944Z,272.00
2017-08-28T05:20:41.936Z,280.00
2017-08-28T05:21:41.913Z,280.00
2017-08-28T05:22:42.267Z,288.00
2017-08-28T05:23:41.906Z,292.00
2017-08-28T05:24:41.895Z,300.00
2017-08-28T05:25:41.905Z,300.00
2017-08-28T05:26:41.866Z,308.00
2017-08-28T05:27:41.860Z,308.00
2017-08-28T05:28:42.197Z,316.00
2017-08-28T05:29:41.849Z,320.00
2017-08-28T05:30:41.828Z,320.00
2017-08-28T05:31:41.818Z,328.00
2017-08-28T05:32:41.818Z,328.00
2017-08-28T05:33:41.814Z,332.00
2017-08-28T05:34:41.814Z,336.00
2017-08-28T05:35:41.785Z,340.00
2017-08-28T05:36:41.774Z,344.00
2017-08-28T05:37:41.793Z,348.00
2017-08-28T05:38:41.754Z,352.00
2017-08-28T05:39:42.203Z,356.00
2017-08-28T05:40:41.748Z,356.00
2017-08-28T05:41:41.747Z,364.00
2017-08-28T05:42:41.717Z,368.00
2017-08-28T05:43:41.711Z,372.00
2017-08-28T05:44:41.700Z,372.00
2017-08-28T05:45:42.096Z,376.00
2017-08-28T05:46:41.679Z,380.00
2017-08-28T05:47:41.671Z,384.00
2017-08-28T05:48:41.659Z,388.00
2017-08-28T05:49:41.658Z,388.00
2017-08-28T05:50:41.660Z,396.00
2017-08-28T05:51:41.684Z,396.00
2017-08-28T05:52:41.627Z,396.00
2017-08-28T05:53:41.624Z,400.00
2017-08-28T05:54:41.607Z,404.00
2017-08-28T05:55:41.613Z,408.00
2017-08-28T05:56:42.023Z,408.00
2017-08-28T05:57:41.577Z,416.00
2017-08-28T05:58:41.582Z,416.00
2017-08-28T05:59:41.573Z,420.00
2017-08-28T06:00:41.572Z,420.00
2017-08-28T06:01:41.554Z,424.00
2017-08-28T06:02:41.563Z,428.00
2017-08-28T06:03:41.517Z,428.00
2017-08-28T06:04:41.533Z,432.00
2017-08-28T06:05:41.529Z,432.00
2017-08-28T06:06:41.834Z,436.00
2017-08-28T06:07:41.494Z,440.00
2017-08-28T06:08:41.474Z,440.00
2017-08-28T06:09:41.469Z,444.00
2017-08-28T06:10:41.471Z,444.00
2017-08-28T06:11:41.458Z,448.00
2017-08-28T06:12:41.489Z,452.00
2017-08-28T06:13:41.430Z,456.00
2017-08-28T06:14:41.421Z,456.00
2017-08-28T06:15:41.410Z,460.00
2017-08-28T06:16:41.434Z,460.00
2017-08-28T06:17:41.747Z,464.00
2017-08-28T06:18:41.385Z,464.00
2017-08-28T06:19:41.377Z,468.00
2017-08-28T06:20:41.394Z,472.00
2017-08-28T06:21:41.372Z,472.00
2017-08-28T06:22:41.356Z,468.00
2017-08-28T06:23:41.666Z,472.00
2017-08-28T06:24:41.327Z,476.00
2017-08-28T06:25:41.333Z,480.00
2017-08-28T06:26:41.313Z,480.00
2017-08-28T06:27:41.303Z,484.00
2017-08-28T06:28:41.323Z,484.00
2017-08-28T06:29:41.634Z,488.00
2017-08-28T06:30:41.278Z,484.00
2017-08-28T06:31:41.284Z,488.00
2017-08-28T06:32:41.261Z,492.00
2017-08-28T06:33:41.270Z,492.00
2017-08-28T06:34:41.250Z,492.00
2017-08-28T06:35:41.272Z,496.00
2017-08-28T06:36:41.235Z,500.00
2017-08-28T06:37:41.220Z,500.00
2017-08-28T06:38:41.638Z,500.00
2017-08-28T06:39:41.195Z,500.00
2017-08-28T06:40:41.189Z,500.00
2017-08-28T06:41:41.178Z,500.00
2017-08-28T06:42:41.169Z,504.00
2017-08-28T06:43:41.157Z,504.00
2017-08-28T06:44:41.465Z,508.00
2017-08-28T06:45:41.167Z,508.00
2017-08-28T06:46:41.137Z,512.00
2017-08-28T06:47:41.132Z,512.00
2017-08-28T06:48:41.120Z,524.00
2017-08-28T06:49:41.101Z,524.00
2017-08-28T06:50:41.500Z,524.00
2017-08-28T06:51:41.104Z,520.00
2017-08-28T06:52:41.097Z,516.00
2017-08-28T06:53:41.065Z,516.00
2017-08-28T06:54:41.072Z,512.00
2017-08-28T06:55:41.060Z,516.00
2017-08-28T06:56:41.256Z,520.00
2017-08-28T06:57:41.056Z,520.00
2017-08-28T06:58:41.024Z,520.00
2017-08-28T06:59:41.024Z,524.00
2017-08-28T07:00:41.006Z,520.00
2017-08-28T07:01:41.008Z,528.00
2017-08-28T07:02:41.317Z,532.00
2017-08-28T07:03:40.977Z,528.00
2017-08-28T07:04:40.979Z,532.00
2017-08-28T07:05:40.994Z,528.00
2017-08-28T07:06:40.980Z,532.00
2017-08-28T07:07:40.954Z,532.00
2017-08-28T07:08:41.287Z,536.00
2017-08-28T07:09:40.925Z,536.00
2017-08-28T07:10:40.920Z,536.00
2017-08-28T07:11:40.923Z,540.00
2017-08-28T07:12:40.900Z,544.00
2017-08-28T07:13:40.900Z,548.00
2017-08-28T07:14:40.910Z,548.00
2017-08-28T07:15:40.894Z,544.00
2017-08-28T07:16:40.874Z,548.00
2017-08-28T07:17:40.860Z,548.00
2017-08-28T07:18:41.292Z,548.00
2017-08-28T07:19:40.838Z,548.00
2017-08-28T07:20:40.830Z,548.00
2017-08-28T07:21:40.834Z,548.00
2017-08-28T07:22:40.826Z,552.00
2017-08-28T07:23:40.802Z,552.00
2017-08-28T07:24:41.230Z,552.00
2017-08-28T07:25:40.801Z,556.00
2017-08-28T07:27:01.804Z,560.00
2017-08-28T07:27:40.795Z,560.00
2017-08-28T07:28:40.761Z,560.00
2017-08-28T07:29:40.770Z,560.00
2017-08-28T07:30:40.775Z,564.00
2017-08-28T07:31:40.745Z,564.00
2017-08-28T07:32:40.728Z,568.00
2017-08-28T07:33:40.720Z,568.00
2017-08-28T07:34:40.735Z,568.00
2017-08-28T07:35:40.713Z,572.00
2017-08-28T07:36:40.695Z,576.00
2017-08-28T07:37:40.685Z,580.00
2017-08-28T07:38:40.681Z,580.00
2017-08-28T07:39:41.012Z,584.00
2017-08-28T07:40:40.676Z,584.00
2017-08-28T07:41:40.678Z,584.00
2017-08-28T07:42:40.655Z,588.00
2017-08-28T07:43:40.636Z,592.00
2017-08-28T07:44:40.647Z,596.00
2017-08-28T07:45:40.960Z,596.00
2017-08-28T07:46:40.608Z,600.00
2017-08-28T07:47:40.617Z,600.00
2017-08-28T07:48:40.591Z,600.00
2017-08-28T07:49:40.581Z,604.00
2017-08-28T07:50:40.590Z,608.00
2017-08-28T07:51:40.937Z,608.00
2017-08-28T07:52:40.584Z,616.00
2017-08-28T07:53:40.557Z,616.00
2017-08-28T07:54:40.557Z,620.00
2017-08-28T07:55:40.541Z,624.00
2017-08-28T07:56:40.548Z,628.00
2017-08-28T07:57:40.919Z,632.00
2017-08-28T07:58:40.517Z,632.00
2017-08-28T07:59:40.499Z,640.00
2017-08-28T08:00:40.506Z,644.00
2017-08-28T08:01:40.493Z,644.00
2017-08-28T08:02:40.481Z,648.00
2017-08-28T08:03:40.773Z,652.00
2017-08-28T08:04:40.457Z,652.00
2017-08-28T08:05:40.452Z,660.00
2017-08-28T08:06:40.452Z,664.00
2017-08-28T08:07:40.447Z,672.00
2017-08-28T08:08:40.440Z,672.00
2017-08-28T08:09:40.721Z,676.00
2017-08-28T08:10:40.409Z,680.00
2017-08-28T08:11:40.413Z,684.00
2017-08-28T08:12:40.394Z,692.00
2017-08-28T08:13:40.397Z,696.00
2017-08-28T08:14:40.385Z,700.00
2017-08-28T08:15:40.401Z,704.00
2017-08-28T08:16:40.361Z,708.00
2017-08-28T08:17:40.372Z,708.00
2017-08-28T08:18:40.352Z,708.00
2017-08-28T08:19:40.551Z,712.00
2017-08-28T08:20:40.340Z,688.00
2017-08-28T08:21:40.325Z,720.00
2017-08-28T08:22:40.330Z,724.00
2017-08-28T08:23:40.306Z,724.00
2017-08-28T08:24:40.295Z,736.00
2017-08-28T08:25:40.679Z,748.00
2017-08-28T08:26:40.280Z,756.00
2017-08-28T08:27:40.276Z,772.00
2017-08-28T08:28:40.263Z,792.00
2017-08-28T08:29:40.269Z,796.00
2017-08-28T08:30:40.258Z,800.00
2017-08-28T08:31:40.693Z,796.00
2017-08-28T08:32:40.241Z,804.00
2017-08-28T08:33:40.249Z,812.00
2017-08-28T08:34:40.229Z,824.00
2017-08-28T08:35:40.225Z,840.00
2017-08-28T08:36:40.229Z,824.00
2017-08-28T08:37:40.552Z,824.00
2017-08-28T08:38:40.202Z,884.00
2017-08-28T08:39:40.184Z,880.00
2017-08-28T08:40:40.277Z,896.00
2017-08-28T08:41:40.378Z,916.00
2017-08-28T08:42:40.177Z,932.00
2017-08-28T08:43:40.558Z,952.00
2017-08-28T08:44:40.151Z,956.00
2017-08-28T08:45:40.144Z,944.00
2017-08-28T08:46:40.132Z,924.00
2017-08-28T08:47:40.119Z,912.00
2017-08-28T08:48:40.114Z,900.00
2017-08-28T08:49:40.466Z,896.00
2017-08-28T08:50:40.099Z,900.00
2017-08-28T08:51:40.088Z,852.00
2017-08-28T08:52:40.095Z,904.00
2017-08-28T08:53:40.089Z,876.00
2017-08-28T08:54:40.066Z,896.00
2017-08-28T08:55:40.439Z,928.00
2017-08-28T08:56:40.066Z,956.00
2017-08-28T08:57:40.166Z,940.00
2017-08-28T08:58:40.126Z,960.00
2017-08-28T08:59:40.164Z,928.00
2017-08-28T09:00:40.039Z,932.00
2017-08-28T09:01:40.431Z,932.00
2017-08-28T09:02:40.016Z,940.00
2017-08-28T09:03:40.024Z,928.00
2017-08-28T09:04:40.002Z,940.00
2017-08-28T09:05:39.994Z,956.00
2017-08-28T09:06:39.980Z,952.00
2017-08-28T09:07:40.278Z,948.00
2017-08-28T09:08:39.984Z,952.00
2017-08-28T09:09:39.971Z,948.00
2017-08-28T09:10:39.960Z,940.00
2017-08-28T09:11:39.951Z,936.00
2017-08-28T09:12:39.954Z,932.00
2017-08-28T09:13:40.148Z,944.00
2017-08-28T09:14:39.925Z,944.00
2017-08-28T09:15:39.933Z,948.00
2017-08-28T09:16:39.903Z,956.00
2017-08-28T09:17:39.908Z,972.00
2017-08-28T09:18:39.890Z,980.00
2017-08-28T09:19:39.920Z,992.00
2017-08-28T09:20:39.880Z,1000.00
2017-08-28T09:21:40.311Z,1028.00
2017-08-28T09:22:39.861Z,1048.00
2017-08-28T09:23:39.855Z,1080.00
2017-08-28T09:24:39.867Z,1096.00
2017-08-28T09:25:39.839Z,1088.00
2017-08-28T09:26:39.851Z,1072.00
2017-08-28T09:27:40.049Z,1088.00
2017-08-28T09:28:39.832Z,1096.00
2017-08-28T09:29:39.812Z,1112.00
2017-08-28T09:30:39.809Z,1108.00
2017-08-28T09:31:39.815Z,1112.00
2017-08-28T09:32:39.799Z,1112.00
2017-08-28T09:33:40.150Z,1120.00
2017-08-28T09:34:39.788Z,1128.00
2017-08-28T09:35:39.783Z,1092.00
2017-08-28T09:36:39.777Z,1100.00
2017-08-28T09:37:39.759Z,1108.00
2017-08-28T09:38:39.760Z,1104.00
2017-08-28T09:39:40.052Z,1100.00
2017-08-28T09:40:39.766Z,1084.00
2017-08-28T09:41:39.729Z,1064.00
2017-08-28T09:42:39.739Z,1052.00
2017-08-28T09:43:39.730Z,1032.00
2017-08-28T09:44:39.726Z,1036.00
2017-08-28T09:45:39.744Z,1036.00
2017-08-28T09:46:40.113Z,1060.00
2017-08-28T09:47:39.691Z,1060.00
2017-08-28T09:48:39.701Z,1068.00
2017-08-28T09:49:39.699Z,1060.00
2017-08-28T09:50:39.673Z,1044.00
2017-08-28T09:51:39.679Z,1020.00
2017-08-28T09:52:40.022Z,1048.00
2017-08-28T09:53:39.660Z,1084.00
2017-08-28T09:54:39.661Z,1096.00
2017-08-28T09:55:39.640Z,1072.00
2017-08-28T09:56:39.643Z,1088.00
2017-08-28T09:57:39.648Z,1132.00
2017-08-28T09:58:39.990Z,1132.00
2017-08-28T09:59:39.613Z,1120.00
2017-08-28T10:00:39.605Z,1108.00
2017-08-28T10:01:39.613Z,1084.00
2017-08-28T10:02:39.603Z,1072.00
2017-08-28T10:03:39.588Z,1012.00
2017-08-28T10:04:39.984Z,980.00
2017-08-28T10:05:39.590Z,980.00
2017-08-28T10:06:39.571Z,1020.00
2017-08-28T10:07:39.574Z,1016.00
2017-08-28T10:08:39.560Z,1036.00
2017-08-28T10:09:39.548Z,1060.00
2017-08-28T10:10:39.991Z,1064.00
2017-08-28T10:11:39.558Z,1040.00
2017-08-28T10:12:39.526Z,1028.00
2017-08-28T10:13:39.546Z,1036.00
2017-08-28T10:14:39.523Z,1068.00
2017-08-28T10:15:39.529Z,1080.00
2017-08-28T10:16:39.549Z,1092.00
2017-08-28T10:17:39.791Z,1096.00
2017-08-28T10:18:39.505Z,1108.00
2017-08-28T10:19:39.503Z,1128.00
2017-08-28T10:20:39.480Z,1124.00
2017-08-28T10:21:39.471Z,1092.00
2017-08-28T10:22:39.480Z,1112.00
2017-08-28T10:23:39.908Z,1124.00
2017-08-28T10:24:39.461Z,1168.00
2017-08-28T10:25:39.442Z,1236.00
2017-08-28T10:26:39.441Z,1360.00
2017-08-28T10:27:39.441Z,1344.00
2017-08-28T10:28:39.426Z,1248.00
2017-08-28T10:29:39.856Z,1324.00
2017-08-28T10:30:39.417Z,1264.00
2017-08-28T10:31:39.406Z,1192.00
2017-08-28T10:32:39.404Z,1192.00
2017-08-28T10:33:39.407Z,1184.00
2017-08-28T10:34:39.406Z,1212.00
2017-08-28T10:35:39.940Z,1204.00
2017-08-28T10:36:39.388Z,1224.00
2017-08-28T10:37:39.380Z,1232.00
2017-08-28T10:38:39.375Z,1252.00
2017-08-28T10:39:39.359Z,1232.00
2017-08-28T10:40:39.355Z,1252.00
2017-08-28T10:41:39.370Z,1308.00
2017-08-28T10:42:39.781Z,1332.00
2017-08-28T10:43:39.333Z,1272.00
2017-08-28T10:44:39.340Z,1276.00
2017-08-28T10:45:39.328Z,1296.00
2017-08-28T10:46:39.313Z,1276.00
2017-08-28T10:47:39.319Z,1256.00
2017-08-28T10:48:39.616Z,1248.00
2017-08-28T10:49:39.294Z,1232.00
2017-08-28T10:50:39.286Z,1128.00
2017-08-28T10:51:39.287Z,1244.00
2017-08-28T10:52:39.302Z,1272.00
2017-08-28T10:53:39.282Z,1292.00
2017-08-28T10:54:39.615Z,1300.00
2017-08-28T10:55:39.263Z,1348.00
2017-08-28T10:56:39.265Z,1400.00
2017-08-28T10:57:39.247Z,1428.00
2017-08-28T10:58:39.259Z,1348.00
2017-08-28T10:59:39.272Z,1384.00
2017-08-28T11:00:39.653Z,1392.00
2017-08-28T11:01:39.233Z,1424.00
2017-08-28T11:02:39.215Z,1448.00
2017-08-28T11:03:39.212Z,1460.00
2017-08-28T11:04:39.215Z,1512.00
2017-08-28T11:05:39.202Z,1532.00
2017-08-28T11:06:39.534Z,1512.00
2017-08-28T11:07:39.204Z,1536.00
2017-08-28T11:08:39.211Z,1520.00
2017-08-28T11:09:39.202Z,1328.00
2017-08-28T11:10:39.180Z,1300.00
2017-08-28T11:11:39.162Z,1404.00
2017-08-28T11:12:39.589Z,1384.00
2017-08-28T11:13:39.150Z,1772.00
2017-08-28T11:14:39.148Z,1836.00
2017-08-28T11:15:39.154Z,2044.00
2017-08-28T11:16:39.147Z,2092.00
2017-08-28T11:17:39.129Z,1564.00
2017-08-28T11:18:39.338Z,1536.00
2017-08-28T11:19:39.116Z,1432.00
2017-08-28T11:20:39.136Z,1500.00
2017-08-28T11:21:39.105Z,1632.00
2017-08-28T11:22:39.098Z,1656.00
2017-08-28T11:23:39.105Z,1648.00
2017-08-28T11:24:39.398Z,1668.00
2017-08-28T11:25:39.082Z,1668.00
2017-08-28T11:26:39.087Z,1668.00
2017-08-28T11:27:39.083Z,1676.00
2017-08-28T11:28:39.081Z,1672.00
2017-08-28T11:29:39.069Z,1668.00
2017-08-28T11:30:39.085Z,1712.00
2017-08-28T11:31:39.058Z,1720.00
2017-08-28T11:32:39.062Z,1780.00
2017-08-28T11:33:39.504Z,1924.00
2017-08-28T11:34:39.047Z,2308.00
2017-08-28T11:35:39.034Z,2552.00
2017-08-28T11:36:39.027Z,2104.00
2017-08-28T11:37:39.027Z,1928.00
2017-08-28T11:38:39.021Z,1928.00
2017-08-28T11:39:39.355Z,1996.00
2017-08-28T11:40:39.012Z,1956.00
2017-08-28T11:41:39.004Z,1888.00
2017-08-28T11:42:38.986Z,1864.00
2017-08-28T11:43:38.994Z,1820.00
2017-08-28T11:44:38.992Z,1844.00
2017-08-28T11:45:39.788Z,1884.00
2017-08-28T11:46:38.978Z,1868.00
2017-08-28T11:47:38.960Z,1884.00
2017-08-28T11:48:38.967Z,1896.00
2017-08-28T11:49:38.948Z,2000.00
2017-08-28T11:50:38.950Z,1856.00
2017-08-28T11:51:38.987Z,3176.00
2017-08-28T11:52:38.945Z,1740.00
2017-08-28T11:53:39.303Z,1792.00
2017-08-28T11:54:38.923Z,1792.00
2017-08-28T11:55:38.932Z,1848.00
2017-08-28T11:56:38.920Z,1876.00
2017-08-28T11:57:38.905Z,1876.00
2017-08-28T11:58:38.908Z,1900.00
2017-08-28T11:59:39.364Z,1980.00
2017-08-28T12:00:38.896Z,2052.00
2017-08-28T12:01:38.882Z,2088.00
2017-08-28T12:02:38.882Z,2076.00
2017-08-28T12:03:38.876Z,2056.00
2017-08-28T12:04:38.879Z,2108.00
2017-08-28T12:05:39.240Z,2136.00
2017-08-28T12:06:38.872Z,2116.00
2017-08-28T12:07:38.849Z,2156.00
2017-08-28T12:08:38.851Z,2172.00
2017-08-28T12:09:38.837Z,4940.00
2017-08-28T12:10:38.834Z,8876.00
2017-08-28T12:11:38.862Z,7024.00
2017-08-28T12:12:38.829Z,2588.00
2017-08-28T12:13:38.845Z,2152.00
2017-08-28T12:14:39.249Z,2628.00
2017-08-28T12:15:38.825Z,2140.00
2017-08-28T12:16:38.816Z,2052.00
2017-08-28T12:17:38.815Z,2032.00
2017-08-28T12:18:38.802Z,2016.00
2017-08-28T12:19:38.798Z,2008.00
2017-08-28T12:20:38.808Z,2012.00
2017-08-28T12:21:38.789Z,2008.00
2017-08-28T12:22:38.779Z,2196.00
2017-08-28T12:23:38.763Z,11900.00
2017-08-28T12:24:38.764Z,15808.00
2017-08-28T12:25:38.796Z,9008.00
2017-08-28T12:26:38.753Z,2432.00
2017-08-28T12:27:38.745Z,2368.00
2017-08-28T12:28:38.755Z,2852.00
2017-08-28T12:29:38.752Z,2468.00
2017-08-28T12:30:39.094Z,2552.00
2017-08-28T12:31:38.727Z,2452.00
2017-08-28T12:32:38.735Z,2612.00
2017-08-28T12:33:38.747Z,2364.00
2017-08-28T12:34:38.724Z,2584.00
2017-08-28T12:35:38.708Z,2512.00
2017-08-28T12:36:38.998Z,2672.00
2017-08-28T12:37:38.712Z,3300.00
2017-08-28T12:38:38.692Z,8392.00
2017-08-28T12:39:38.699Z,11828.00